Bluffton, SC

3:29 PM EST en Marzo 02, 2015 (GMT -0500)
Bluffton RHP | Change Station
CLOSE
Current Station
Estación meteorológica personal
Location: Bluffton, SC
Altura: 35 ft
Estaciones meteorológicas cercanas

Alt 35 ft 32.27 °N, 80.89 °W | Updated 4 minutes ago

Parcialmente nublado
Parcialmente nublado
73.4 ° F
Sensación térmica 76 ° F
N
1.0
Viento Variable Viento desde OSO
Gusts 2.0 mph

Hoy
Alta -- | Baja -- ° F
--% Posibilidad de precipitaciones
Ayer
Alta -- | Baja -- ° F
Precip. -- pul
6:50 AM 6:21 PM
Gibosa creciente, 93% visible
Presión 30.23 pul
Visibilidad 10.0 Millas
Nubes Despejado
Índice de calor 76 ° F
Punto de rocío 62 ° F
Humedad 68%
Precipitaciones 0.00 pul
Espesor de la nieve No disponible.
UV 6 de una escala de 12
Polen 8.40 de una escala de 12
Calidad del aire No disponible.
Flu Activity No disponible.
METAR KHXD 021950Z 12005KT 10SM SKC 18/14 A3023

More Conditions Fewer Conditions

Presión 30.23 pul
Visibilidad 10.0 Millas
Nubes Despejado
Índice de calor 76 ° F
Punto de rocío 62 ° F
Humedad 68%
Precipitaciones 0.00 pul
Espesor de la nieve No disponible.
UV 6 de una escala de 12
Polen 8.40 de una escala de 12
Calidad del aire No disponible.
Flu Activity No disponible.
METAR KHXD 021950Z 12005KT 10SM SKC 18/14 A3023

More Conditions Fewer Conditions

10-Day Weather Forecast

Almanac

Astronomía

Mar. 02, 2015 Salida Puesta
Hora real
Crepúsculo civil
Crepúsculo náutico
Crepúsculo astronómico
Luna
Horas de luz
Horas de luz
Tomorrow will be .
, % of the Moon is Illuminated

Extremos de hoy

Máximos del estado Bajos del estado

Community

WunderPhotos

Upload Photos

1,801,938 ¡fotos cargadas!

WunderBlogs® & News

Nearby

Calidad del aire

  Calidad del aire Índice AQ Contaminante
Not available.

Grosos de nieve

Estación Profundido Altura

Actividad de terremotos

Ciudad Distance Mag. Tiempo y dato
Magnitud mínima muestra es 2,5.

Temperaturas de aguas costeras

Lugar Temperatura

Estaciones meteorológicas cercanas